sensor_id;sensor_type;location;lat;lon;timestamp;pressure;altitude;pressure_sealevel;temperature;humidity
20145;BME280;10233;50.814;6.590;2023-10-31T00:00:53;98381.94;;;11.88;100.00
20145;BME280;10233;50.814;6.590;2023-10-31T00:01:53;98382.22;;;11.91;100.00
20145;BME280;10233;50.814;6.590;2023-10-31T00:02:55;98387.78;;;11.90;100.00
20145;BME280;10233;50.814;6.590;2023-10-31T00:03:55;98389.63;;;11.89;100.00
20145;BME280;10233;50.814;6.590;2023-10-31T00:04:56;98400.84;;;11.91;100.00
20145;BME280;10233;50.814;6.590;2023-10-31T00:05:56;98396.84;;;11.89;100.00
20145;BME280;10233;50.814;6.590;2023-10-31T00:06:57;98388.03;;;11.88;100.00
20145;BME280;10233;50.814;6.590;2023-10-31T00:07:57;98394.41;;;11.82;100.00
20145;BME280;10233;50.814;6.590;2023-10-31T00:08:58;98394.91;;;11.79;100.00
20145;BME280;10233;50.814;6.590;2023-10-31T00:09:58;98401.56;;;11.82;100.00
20145;BME280;10233;50.814;6.590;2023-10-31T00:10:58;98398.63;;;11.78;100.00
20145;BME280;10233;50.814;6.590;2023-10-31T00:11:59;98407.91;;;11.76;100.00
20145;BME280;10233;50.814;6.590;2023-10-31T00:12:59;98407.88;;;11.71;100.00
20145;BME280;10233;50.814;6.590;2023-10-31T00:14:00;98408.69;;;11.71;100.00
20145;BME280;10233;50.814;6.590;2023-10-31T00:15:00;98418.28;;;11.72;100.00
20145;BME280;10233;50.814;6.590;2023-10-31T00:16:01;98415.06;;;11.70;100.00
20145;BME280;10233;50.814;6.590;2023-10-31T00:17:01;98419.84;;;11.68;100.00
20145;BME280;10233;50.814;6.590;2023-10-31T00:18:02;98426.47;;;11.66;100.00
20145;BME280;10233;50.814;6.590;2023-10-31T00:19:02;98431.25;;;11.64;100.00
20145;BME280;10233;50.814;6.590;2023-10-31T00:20:03;98447.53;;;11.67;100.00
20145;BME280;10233;50.814;6.590;2023-10-31T00:21:04;98444.28;;;11.65;100.00
20145;BME280;10233;50.814;6.590;2023-10-31T00:22:05;98441.94;;;11.69;100.00
20145;BME280;10233;50.814;6.590;2023-10-31T00:23:06;98449.16;;;11.73;100.00
20145;BME280;10233;50.814;6.590;2023-10-31T00:24:07;98444.88;;;11.67;100.00
20145;BME280;10233;50.814;6.590;2023-10-31T00:25:07;98442.97;;;11.68;100.00
20145;BME280;10233;50.814;6.590;2023-10-31T00:26:08;98444.88;;;11.67;100.00
20145;BME280;10233;50.814;6.590;2023-10-31T00:27:10;98441.63;;;11.65;100.00
20145;BME280;10233;50.814;6.590;2023-10-31T00:28:10;98447.47;;;11.62;100.00
20145;BME280;10233;50.814;6.590;2023-10-31T00:29:11;98452.59;;;11.69;100.00
20145;BME280;10233;50.814;6.590;2023-10-31T00:30:11;98452.28;;;11.65;100.00
20145;BME280;10233;50.814;6.590;2023-10-31T00:31:12;98454.41;;;11.63;100.00
20145;BME280;10233;50.814;6.590;2023-10-31T00:32:13;98457.00;;;11.58;100.00
20145;BME280;10233;50.814;6.590;2023-10-31T00:33:14;98455.63;;;11.56;100.00
20145;BME280;10233;50.814;6.590;2023-10-31T00:34:14;98452.81;;;11.62;100.00
20145;BME280;10233;50.814;6.590;2023-10-31T00:35:15;98457.56;;;11.60;100.00
20145;BME280;10233;50.814;6.590;2023-10-31T00:36:16;98458.66;;;11.64;100.00
20145;BME280;10233;50.814;6.590;2023-10-31T00:37:16;98457.06;;;11.63;100.00
20145;BME280;10233;50.814;6.590;2023-10-31T00:38:17;98459.22;;;11.66;100.00
20145;BME280;10233;50.814;6.590;2023-10-31T00:39:17;98461.56;;;11.63;100.00
20145;BME280;10233;50.814;6.590;2023-10-31T00:40:17;98463.75;;;11.66;100.00
20145;BME280;10233;50.814;6.590;2023-10-31T00:41:18;98463.13;;;11.59;100.00
20145;BME280;10233;50.814;6.590;2023-10-31T00:42:18;98466.03;;;11.57;100.00
20145;BME280;10233;50.814;6.590;2023-10-31T00:43:19;98466.13;;;11.62;100.00
20145;BME280;10233;50.814;6.590;2023-10-31T00:44:19;98467.16;;;11.61;100.00
20145;BME280;10233;50.814;6.590;2023-10-31T00:45:20;98464.97;;;11.58;100.00
20145;BME280;10233;50.814;6.590;2023-10-31T00:46:20;98465.75;;;11.54;100.00
20145;BME280;10233;50.814;6.590;2023-10-31T00:47:21;98470.19;;;11.48;100.00
20145;BME280;10233;50.814;6.590;2023-10-31T00:48:23;98467.25;;;11.45;100.00
20145;BME280;10233;50.814;6.590;2023-10-31T00:49:24;98466.44;;;11.44;100.00
20145;BME280;10233;50.814;6.590;2023-10-31T00:50:25;98479.69;;;11.39;100.00
20145;BME280;10233;50.814;6.590;2023-10-31T00:51:25;98480.31;;;11.46;100.00
20145;BME280;10233;50.814;6.590;2023-10-31T00:52:25;98481.84;;;11.42;100.00
20145;BME280;10233;50.814;6.590;2023-10-31T00:53:26;98480.19;;;11.36;100.00
20145;BME280;10233;50.814;6.590;2023-10-31T00:54:26;98484.41;;;11.32;100.00
20145;BME280;10233;50.814;6.590;2023-10-31T00:55:27;98487.13;;;11.37;100.00
20145;BME280;10233;50.814;6.590;2023-10-31T00:56:27;98486.00;;;11.33;100.00
20145;BME280;10233;50.814;6.590;2023-10-31T00:57:27;98487.06;;;11.32;100.00
20145;BME280;10233;50.814;6.590;2023-10-31T00:58:28;98484.66;;;11.31;100.00
20145;BME280;10233;50.814;6.590;2023-10-31T00:59:28;98495.78;;;11.28;100.00
20145;BME280;10233;50.814;6.590;2023-10-31T01:00:29;98496.59;;;11.28;100.00
20145;BME280;10233;50.814;6.590;2023-10-31T01:01:29;98494.72;;;11.29;100.00
20145;BME280;10233;50.814;6.590;2023-10-31T01:02:30;98489.13;;;11.25;100.00
20145;BME280;10233;50.814;6.590;2023-10-31T01:03:30;98492.84;;;11.24;100.00
20145;BME280;10233;50.814;6.590;2023-10-31T01:04:30;98492.53;;;11.21;100.00
20145;BME280;10233;50.814;6.590;2023-10-31T01:05:31;98495.97;;;11.21;100.00
20145;BME280;10233;50.814;6.590;2023-10-31T01:06:32;98488.50;;;11.18;100.00
20145;BME280;10233;50.814;6.590;2023-10-31T01:07:32;98492.22;;;11.17;100.00
20145;BME280;10233;50.814;6.590;2023-10-31T01:08:32;98494.91;;;11.17;100.00
20145;BME280;10233;50.814;6.590;2023-10-31T01:09:33;98483.97;;;11.19;100.00
20145;BME280;10233;50.814;6.590;2023-10-31T01:10:34;98495.19;;;11.21;100.00
20145;BME280;10233;50.814;6.590;2023-10-31T01:11:34;98495.69;;;11.18;100.00
20145;BME280;10233;50.814;6.590;2023-10-31T01:12:34;98496.25;;;11.20;100.00
20145;BME280;10233;50.814;6.590;2023-10-31T01:13:35;98502.31;;;11.15;100.00
20145;BME280;10233;50.814;6.590;2023-10-31T01:14:36;98486.91;;;11.17;100.00
20145;BME280;10233;50.814;6.590;2023-10-31T01:15:36;98490.59;;;11.16;100.00
20145;BME280;10233;50.814;6.590;2023-10-31T01:16:37;98485.81;;;11.13;100.00
20145;BME280;10233;50.814;6.590;2023-10-31T01:17:37;98492.47;;;11.16;100.00
20145;BME280;10233;50.814;6.590;2023-10-31T01:18:37;98488.28;;;11.20;100.00
20145;BME280;10233;50.814;6.590;2023-10-31T01:19:38;98486.09;;;11.17;100.00
20145;BME280;10233;50.814;6.590;2023-10-31T01:20:38;98486.69;;;11.24;100.00
20145;BME280;10233;50.814;6.590;2023-10-31T01:21:39;98484.56;;;11.21;100.00
20145;BME280;10233;50.814;6.590;2023-10-31T01:22:39;98481.09;;;11.20;100.00
20145;BME280;10233;50.814;6.590;2023-10-31T01:23:40;98479.00;;;11.22;100.00
20145;BME280;10233;50.814;6.590;2023-10-31T01:24:40;98482.69;;;11.21;100.00
20145;BME280;10233;50.814;6.590;2023-10-31T01:25:41;98480.03;;;11.21;100.00
20145;BME280;10233;50.814;6.590;2023-10-31T01:26:41;98477.31;;;11.16;100.00
20145;BME280;10233;50.814;6.590;2023-10-31T01:27:42;98474.66;;;11.16;100.00
20145;BME280;10233;50.814;6.590;2023-10-31T01:28:43;98470.97;;;11.17;100.00
20145;BME280;10233;50.814;6.590;2023-10-31T01:29:44;98471.44;;;11.14;100.00
20145;BME280;10233;50.814;6.590;2023-10-31T01:30:44;98472.84;;;11.22;100.00
20145;BME280;10233;50.814;6.590;2023-10-31T01:31:45;98477.31;;;11.16;100.00
20145;BME280;10233;50.814;6.590;2023-10-31T01:32:46;98474.09;;;11.14;100.00
20145;BME280;10233;50.814;6.590;2023-10-31T01:33:47;98476.22;;;11.12;100.00
20145;BME280;10233;50.814;6.590;2023-10-31T01:34:47;98481.59;;;11.17;100.00
20145;BME280;10233;50.814;6.590;2023-10-31T01:35:48;98474.34;;;11.13;100.00
20145;BME280;10233;50.814;6.590;2023-10-31T01:36:48;98477.00;;;11.13;100.00
20145;BME280;10233;50.814;6.590;2023-10-31T01:37:49;98482.63;;;11.16;100.00
20145;BME280;10233;50.814;6.590;2023-10-31T01:38:49;98479.19;;;11.16;100.00
20145;BME280;10233;50.814;6.590;2023-10-31T01:39:50;98479.13;;;11.11;100.00
20145;BME280;10233;50.814;6.590;2023-10-31T01:40:50;98490.81;;;11.10;100.00
20145;BME280;10233;50.814;6.590;2023-10-31T01:41:51;98486.81;;;11.07;100.00
20145;BME280;10233;50.814;6.590;2023-10-31T01:42:52;98483.09;;;11.08;100.00
20145;BME280;10233;50.814;6.590;2023-10-31T01:43:53;98486.47;;;11.04;100.00
20145;BME280;10233;50.814;6.590;2023-10-31T01:44:53;98486.47;;;11.04;100.00
20145;BME280;10233;50.814;6.590;2023-10-31T01:45:54;98475.59;;;11.05;100.00
20145;BME280;10233;50.814;6.590;2023-10-31T01:46:55;98491.00;;;11.03;100.00
20145;BME280;10233;50.814;6.590;2023-10-31T01:47:56;98486.47;;;11.04;100.00
20145;BME280;10233;50.814;6.590;2023-10-31T01:48:56;98489.94;;;11.04;100.00
20145;BME280;10233;50.814;6.590;2023-10-31T01:49:57;98484.38;;;11.06;100.00
20145;BME280;10233;50.814;6.590;2023-10-31T01:50:59;98485.69;;;11.03;100.00
20145;BME280;10233;50.814;6.590;2023-10-31T01:52:01;98487.03;;;11.06;100.00
20145;BME280;10233;50.814;6.590;2023-10-31T01:53:04;98488.81;;;11.00;100.00
20145;BME280;10233;50.814;6.590;2023-10-31T01:54:05;98490.19;;;11.03;100.00
20145;BME280;10233;50.814;6.590;2023-10-31T01:55:06;98485.69;;;11.03;100.00
20145;BME280;10233;50.814;6.590;2023-10-31T01:56:08;98486.22;;;11.05;100.00
20145;BME280;10233;50.814;6.590;2023-10-31T01:57:09;98492.78;;;10.98;100.00
20145;BME280;10233;50.814;6.590;2023-10-31T01:58:11;98491.50;;;11.00;100.00
20145;BME280;10233;50.814;6.590;2023-10-31T01:59:12;98491.50;;;11.00;100.00
20145;BME280;10233;50.814;6.590;2023-10-31T02:00:13;98482.97;;;10.98;100.00
20145;BME280;10233;50.814;6.590;2023-10-31T02:01:15;98493.03;;;10.96;100.00
20145;BME280;10233;50.814;6.590;2023-10-31T02:02:17;98490.06;;;10.93;100.00
20145;BME280;10233;50.814;6.590;2023-10-31T02:03:18;98481.84;;;10.94;100.00
20145;BME280;10233;50.814;6.590;2023-10-31T02:04:18;98493.28;;;10.95;100.00
20145;BME280;10233;50.814;6.590;2023-10-31T02:05:19;98491.38;;;10.90;100.00
20145;BME280;10233;50.814;6.590;2023-10-31T02:06:19;98491.66;;;10.94;100.00
20145;BME280;10233;50.814;6.590;2023-10-31T02:07:20;98483.47;;;10.95;100.00
20145;BME280;10233;50.814;6.590;2023-10-31T02:08:21;98491.91;;;10.92;100.00
20145;BME280;10233;50.814;6.590;2023-10-31T02:09:25;98494.03;;;10.90;100.00
20145;BME280;10233;50.814;6.590;2023-10-31T02:10:27;98487.66;;;10.91;100.00
20145;BME280;10233;50.814;6.590;2023-10-31T02:11:28;98492.66;;;10.88;100.00
20145;BME280;10233;50.814;6.590;2023-10-31T02:12:35;98493.72;;;10.87;100.00
20145;BME280;10233;50.814;6.590;2023-10-31T02:13:36;98488.72;;;10.90;100.00
20145;BME280;10233;50.814;6.590;2023-10-31T02:14:37;98485.19;;;10.85;100.00
20145;BME280;10233;50.814;6.590;2023-10-31T02:15:38;98476.41;;;10.84;100.00
20145;BME280;10233;50.814;6.590;2023-10-31T02:16:39;98482.84;;;10.88;100.00
20145;BME280;10233;50.814;6.590;2023-10-31T02:17:40;98481.56;;;10.91;100.00
20145;BME280;10233;50.814;6.590;2023-10-31T02:18:40;98484.69;;;10.88;100.00
20145;BME280;10233;50.814;6.590;2023-10-31T02:19:41;98482.84;;;10.88;100.00
20145;BME280;10233;50.814;6.590;2023-10-31T02:20:42;98482.34;;;10.91;100.00
20145;BME280;10233;50.814;6.590;2023-10-31T02:21:46;98482.84;;;10.88;100.00
20145;BME280;10233;50.814;6.590;2023-10-31T02:22:46;98494.56;;;10.92;100.00
20145;BME280;10233;50.814;6.590;2023-10-31T02:24:02;98483.34;;;10.85;100.00
20145;BME280;10233;50.814;6.590;2023-10-31T02:25:15;98484.16;;;10.86;100.00
20145;BME280;10233;50.814;6.590;2023-10-31T02:26:17;98491.56;;;10.84;100.00
20145;BME280;10233;50.814;6.590;2023-10-31T02:27:19;98483.88;;;10.87;100.00
20145;BME280;10233;50.814;6.590;2023-10-31T02:28:20;98489.19;;;10.87;100.00
20145;BME280;10233;50.814;6.590;2023-10-31T02:29:20;98490.75;;;10.83;100.00
20145;BME280;10233;50.814;6.590;2023-10-31T02:30:21;98485.13;;;10.80;100.00
20145;BME280;10233;50.814;6.590;2023-10-31T02:31:22;98486.75;;;10.81;100.00
20145;BME280;10233;50.814;6.590;2023-10-31T02:32:22;98494.22;;;10.84;100.00
20145;BME280;10233;50.814;6.590;2023-10-31T02:33:23;98487.84;;;10.85;100.00
20145;BME280;10233;50.814;6.590;2023-10-31T02:34:23;98490.75;;;10.83;100.00
20145;BME280;10233;50.814;6.590;2023-10-31T02:35:26;98492.59;;;10.83;100.00
20145;BME280;10233;50.814;6.590;2023-10-31T02:36:26;98484.63;;;10.83;100.00
20145;BME280;10233;50.814;6.590;2023-10-31T02:37:27;98484.88;;;10.81;100.00
20145;BME280;10233;50.814;6.590;2023-10-31T02:38:27;98484.63;;;10.83;100.00
20145;BME280;10233;50.814;6.590;2023-10-31T02:39:28;98481.16;;;10.82;100.00
20145;BME280;10233;50.814;6.590;2023-10-31T02:40:28;98482.53;;;10.85;100.00
20145;BME280;10233;50.814;6.590;2023-10-31T02:41:29;98476.41;;;10.84;100.00
20145;BME280;10233;50.814;6.590;2023-10-31T02:42:29;98483.09;;;10.87;100.00
20145;BME280;10233;50.814;6.590;2023-10-31T02:43:30;98482.34;;;10.91;100.00
20145;BME280;10233;50.814;6.590;2023-10-31T02:44:31;98486.81;;;10.86;100.00
20145;BME280;10233;50.814;6.590;2023-10-31T02:45:31;98490.00;;;10.88;100.00
20145;BME280;10233;50.814;6.590;2023-10-31T02:46:32;98488.66;;;10.85;100.00
20145;BME280;10233;50.814;6.590;2023-10-31T02:47:32;98482.84;;;10.88;100.00
20145;BME280;10233;50.814;6.590;2023-10-31T02:48:33;98487.66;;;10.91;100.00
20145;BME280;10233;50.814;6.590;2023-10-31T02:49:39;98491.56;;;10.84;100.00
20145;BME280;10233;50.814;6.590;2023-10-31T02:50:39;98490.25;;;10.86;100.00
20145;BME280;10233;50.814;6.590;2023-10-31T02:51:42;98488.94;;;10.89;100.00
20145;BME280;10233;50.814;6.590;2023-10-31T02:52:42;98493.72;;;10.87;100.00
20145;BME280;10233;50.814;6.590;2023-10-31T02:53:43;98496.38;;;10.87;100.00
20145;BME280;10233;50.814;6.590;2023-10-31T02:54:43;98492.59;;;10.83;100.00
20145;BME280;10233;50.814;6.590;2023-10-31T02:55:44;98497.69;;;10.84;100.00
20145;BME280;10233;50.814;6.590;2023-10-31T02:56:44;98496.38;;;10.87;100.00
20145;BME280;10233;50.814;6.590;2023-10-31T02:57:45;98501.69;;;10.87;100.00
20145;BME280;10233;50.814;6.590;2023-10-31T02:58:45;98493.72;;;10.87;100.00
20145;BME280;10233;50.814;6.590;2023-10-31T02:59:46;98497.16;;;10.87;100.00
20145;BME280;10233;50.814;6.590;2023-10-31T03:00:46;98501.19;;;10.90;100.00
20145;BME280;10233;50.814;6.590;2023-10-31T03:01:47;98504.59;;;10.85;100.00
20145;BME280;10233;50.814;6.590;2023-10-31T03:02:47;98508.31;;;10.84;100.00
20145;BME280;10233;50.814;6.590;2023-10-31T03:03:47;98508.13;;;10.91;100.00
20145;BME280;10233;50.814;6.590;2023-10-31T03:04:48;98512.56;;;10.85;100.00
20145;BME280;10233;50.814;6.590;2023-10-31T03:05:48;98513.75;;;10.94;100.00
20145;BME280;10233;50.814;6.590;2023-10-31T03:06:50;98520.06;;;10.88;100.00
20145;BME280;10233;50.814;6.590;2023-10-31T03:07:50;98518.94;;;10.84;100.00
20145;BME280;10233;50.814;6.590;2023-10-31T03:08:51;98519.00;;;10.89;100.00
20145;BME280;10233;50.814;6.590;2023-10-31T03:09:51;98520.06;;;10.88;100.00
20145;BME280;10233;50.814;6.590;2023-10-31T03:10:53;98512.47;;;10.97;100.00
20145;BME280;10233;50.814;6.590;2023-10-31T03:11:54;98519.13;;;10.99;100.00
20145;BME280;10233;50.814;6.590;2023-10-31T03:12:55;98515.72;;;11.04;100.00
20145;BME280;10233;50.814;6.590;2023-10-31T03:13:55;98520.56;;;11.07;100.00
20145;BME280;10233;50.814;6.590;2023-10-31T03:14:56;98515.72;;;11.04;100.00
20145;BME280;10233;50.814;6.590;2023-10-31T03:15:57;98527.72;;;11.06;100.00
20145;BME280;10233;50.814;6.590;2023-10-31T03:16:58;98525.63;;;11.08;100.00
20145;BME280;10233;50.814;6.590;2023-10-31T03:17:58;98523.50;;;11.10;100.00
20145;BME280;10233;50.814;6.590;2023-10-31T03:18:59;98521.22;;;11.19;100.00
20145;BME280;10233;50.814;6.590;2023-10-31T03:20:00;98517.78;;;11.18;100.00
20145;BME280;10233;50.814;6.590;2023-10-31T03:21:00;98518.25;;;11.15;100.00
20145;BME280;10233;50.814;6.590;2023-10-31T03:22:01;98511.16;;;11.21;100.00
20145;BME280;10233;50.814;6.590;2023-10-31T03:23:02;98520.69;;;11.17;100.00
20145;BME280;10233;50.814;6.590;2023-10-31T03:24:02;98515.72;;;11.25;100.00
20145;BME280;10233;50.814;6.590;2023-10-31T03:25:03;98510.44;;;11.30;100.00
20145;BME280;10233;50.814;6.590;2023-10-31T03:26:04;98514.75;;;11.36;100.00
20145;BME280;10233;50.814;6.590;2023-10-31T03:27:04;98515.53;;;11.32;100.00
20145;BME280;10233;50.814;6.590;2023-10-31T03:28:17;98513.09;;;11.30;100.00
20145;BME280;10233;50.814;6.590;2023-10-31T03:29:19;98508.09;;;11.34;100.00
20145;BME280;10233;50.814;6.590;2023-10-31T03:30:19;98511.56;;;11.34;100.00
20145;BME280;10233;50.814;6.590;2023-10-31T03:31:20;98508.41;;;11.37;100.00
20145;BME280;10233;50.814;6.590;2023-10-31T03:32:20;98506.78;;;11.36;100.00
20145;BME280;10233;50.814;6.590;2023-10-31T03:33:22;98506.00;;;11.36;100.00
20145;BME280;10233;50.814;6.590;2023-10-31T03:34:24;98505.75;;;11.37;100.00
20145;BME280;10233;50.814;6.590;2023-10-31T03:35:24;98515.56;;;11.37;100.00
20145;BME280;10233;50.814;6.590;2023-10-31T03:36:24;98512.09;;;11.36;100.00
20145;BME280;10233;50.814;6.590;2023-10-31T03:37:25;98523.84;;;11.40;100.00
20145;BME280;10233;50.814;6.590;2023-10-31T03:38:25;98520.22;;;11.46;100.00
20145;BME280;10233;50.814;6.590;2023-10-31T03:39:26;98520.00;;;11.53;100.00
20145;BME280;10233;50.814;6.590;2023-10-31T03:40:26;98524.25;;;11.49;100.00
20145;BME280;10233;50.814;6.590;2023-10-31T03:41:26;98529.00;;;11.47;100.00
20145;BME280;10233;50.814;6.590;2023-10-31T03:42:27;98526.91;;;11.49;100.00
20145;BME280;10233;50.814;6.590;2023-10-31T03:43:30;98533.31;;;11.53;100.00
20145;BME280;10233;50.814;6.590;2023-10-31T03:44:30;98527.72;;;11.54;100.00
20145;BME280;10233;50.814;6.590;2023-10-31T03:45:31;98528.31;;;11.56;100.00
20145;BME280;10233;50.814;6.590;2023-10-31T03:46:33;98529.16;;;11.62;100.00
20145;BME280;10233;50.814;6.590;2023-10-31T03:47:34;98524.59;;;11.57;100.00
20145;BME280;10233;50.814;6.590;2023-10-31T03:48:34;98528.31;;;11.56;100.00
20145;BME280;10233;50.814;6.590;2023-10-31T03:49:37;98533.06;;;11.54;100.00
20145;BME280;10233;50.814;6.590;2023-10-31T03:50:38;98537.06;;;11.57;100.00
20145;BME280;10233;50.814;6.590;2023-10-31T03:51:39;98536.63;;;11.60;100.00
20145;BME280;10233;50.814;6.590;2023-10-31T03:52:39;98541.69;;;11.61;100.00
20145;BME280;10233;50.814;6.590;2023-10-31T03:53:39;98549.09;;;11.59;100.00
20145;BME280;10233;50.814;6.590;2023-10-31T03:54:40;98551.56;;;11.66;100.00
20145;BME280;10233;50.814;6.590;2023-10-31T03:55:41;98551.56;;;11.66;100.00
20145;BME280;10233;50.814;6.590;2023-10-31T03:56:42;98548.63;;;11.62;100.00
20145;BME280;10233;50.814;6.590;2023-10-31T03:57:43;98554.25;;;11.66;100.00
20145;BME280;10233;50.814;6.590;2023-10-31T03:58:44;98558.25;;;11.68;100.00
20145;BME280;10233;50.814;6.590;2023-10-31T03:59:44;98561.41;;;11.65;100.00
20145;BME280;10233;50.814;6.590;2023-10-31T04:00:45;98561.97;;;11.67;100.00
20145;BME280;10233;50.814;6.590;2023-10-31T04:01:45;98562.47;;;11.64;100.00
20145;BME280;10233;50.814;6.590;2023-10-31T04:02:46;98573.69;;;11.66;100.00
20145;BME280;10233;50.814;6.590;2023-10-31T04:03:46;98574.22;;;11.68;100.00
20145;BME280;10233;50.814;6.590;2023-10-31T04:04:47;98571.31;;;11.70;100.00
20145;BME280;10233;50.814;6.590;2023-10-31T04:05:47;98573.13;;;11.64;100.00
20145;BME280;10233;50.814;6.590;2023-10-31T04:06:48;98564.06;;;11.65;100.00
20145;BME280;10233;50.814;6.590;2023-10-31T04:07:48;98571.81;;;11.67;100.00
20145;BME280;10233;50.814;6.590;2023-10-31T04:08:49;98572.56;;;11.62;100.00
20145;BME280;10233;50.814;6.590;2023-10-31T04:09:49;98580.56;;;11.62;100.00
20145;BME280;10233;50.814;6.590;2023-10-31T04:10:50;98578.72;;;11.68;100.00
20145;BME280;10233;50.814;6.590;2023-10-31T04:11:50;98579.56;;;11.68;100.00
20145;BME280;10233;50.814;6.590;2023-10-31T04:12:51;98581.09;;;11.64;100.00
20145;BME280;10233;50.814;6.590;2023-10-31T04:13:51;98578.78;;;11.73;100.00
20145;BME280;10233;50.814;6.590;2023-10-31T04:14:52;98577.94;;;11.67;100.00
20145;BME280;10233;50.814;6.590;2023-10-31T04:15:52;98570.75;;;11.68;100.00
20145;BME280;10233;50.814;6.590;2023-10-31T04:16:53;98583.28;;;11.67;100.00
20145;BME280;10233;50.814;6.590;2023-10-31T04:17:53;98587.00;;;11.66;100.00
20145;BME280;10233;50.814;6.590;2023-10-31T04:18:53;98572.09;;;11.70;100.00
20145;BME280;10233;50.814;6.590;2023-10-31T04:19:54;98575.28;;;11.67;100.00
20145;BME280;10233;50.814;6.590;2023-10-31T04:20:55;98579.91;;;11.77;100.00
20145;BME280;10233;50.814;6.590;2023-10-31T04:21:55;98575.81;;;11.69;100.00
20145;BME280;10233;50.814;6.590;2023-10-31T04:22:56;98583.88;;;11.74;100.00
20145;BME280;10233;50.814;6.590;2023-10-31T04:23:56;98585.41;;;11.70;100.00
20145;BME280;10233;50.814;6.590;2023-10-31T04:24:57;98589.09;;;11.64;100.00
20145;BME280;10233;50.814;6.590;2023-10-31T04:25:57;98587.53;;;11.68;100.00
20145;BME280;10233;50.814;6.590;2023-10-31T04:26:57;98587.00;;;11.66;100.00
20145;BME280;10233;50.814;6.590;2023-10-31T04:27:58;98593.91;;;11.67;100.00
20145;BME280;10233;50.814;6.590;2023-10-31T04:28:59;98596.88;;;11.71;100.00
20145;BME280;10233;50.814;6.590;2023-10-31T04:29:59;98592.03;;;11.68;100.00
20145;BME280;10233;50.814;6.590;2023-10-31T04:31:00;98594.47;;;11.69;100.00
20145;BME280;10233;50.814;6.590;2023-10-31T04:32:00;98588.59;;;11.67;100.00
20145;BME280;10233;50.814;6.590;2023-10-31T04:33:01;98604.56;;;11.67;100.00
20145;BME280;10233;50.814;6.590;2023-10-31T04:34:01;98602.97;;;11.66;100.00
20145;BME280;10233;50.814;6.590;2023-10-31T04:35:02;98598.13;;;11.63;100.00
20145;BME280;10233;50.814;6.590;2023-10-31T04:36:02;98603.22;;;11.65;100.00
20145;BME280;10233;50.814;6.590;2023-10-31T04:37:04;98600.25;;;11.61;100.00
20145;BME280;10233;50.814;6.590;2023-10-31T04:38:04;98605.00;;;11.59;100.00
20145;BME280;10233;50.814;6.590;2023-10-31T04:39:05;98592.72;;;11.58;100.00
20145;BME280;10233;50.814;6.590;2023-10-31T04:40:06;98602.34;;;11.59;100.00
20145;BME280;10233;50.814;6.590;2023-10-31T04:41:08;98599.88;;;11.58;100.00
20145;BME280;10233;50.814;6.590;2023-10-31T04:42:08;98609.75;;;11.57;100.00
20145;BME280;10233;50.814;6.590;2023-10-31T04:43:08;98609.03;;;11.62;100.00
20145;BME280;10233;50.814;6.590;2023-10-31T04:44:09;98609.50;;;11.59;100.00
20145;BME280;10233;50.814;6.590;2023-10-31T04:45:09;98609.50;;;11.59;100.00
20145;BME280;10233;50.814;6.590;2023-10-31T04:46:10;98612.66;;;11.56;100.00
20145;BME280;10233;50.814;6.590;2023-10-31T04:47:10;98601.19;;;11.55;100.00
20145;BME280;10233;50.814;6.590;2023-10-31T04:48:11;98610.31;;;11.59;100.00
20145;BME280;10233;50.814;6.590;2023-10-31T04:49:11;98608.63;;;11.53;100.00
20145;BME280;10233;50.814;6.590;2023-10-31T04:50:12;98617.44;;;11.54;100.00
20145;BME280;10233;50.814;6.590;2023-10-31T04:51:12;98614.78;;;11.54;100.00
20145;BME280;10233;50.814;6.590;2023-10-31T04:52:13;98613.97;;;11.53;100.00
20145;BME280;10233;50.814;6.590;2023-10-31T04:53:13;98620.88;;;11.54;100.00
20145;BME280;10233;50.814;6.590;2023-10-31T04:54:13;98617.16;;;11.55;100.00
20145;BME280;10233;50.814;6.590;2023-10-31T04:55:14;98617.44;;;11.54;100.00
20145;BME280;10233;50.814;6.590;2023-10-31T04:56:15;98611.34;;;11.58;100.00
20145;BME280;10233;50.814;6.590;2023-10-31T04:57:16;98614.84;;;11.59;100.00
20145;BME280;10233;50.814;6.590;2023-10-31T04:58:16;98613.19;;;11.58;100.00
20145;BME280;10233;50.814;6.590;2023-10-31T04:59:17;98616.53;;;11.65;100.00
20145;BME280;10233;50.814;6.590;2023-10-31T05:00:17;98609.66;;;11.69;100.00
20145;BME280;10233;50.814;6.590;2023-10-31T05:01:18;98613.28;;;11.63;100.00
20145;BME280;10233;50.814;6.590;2023-10-31T05:02:21;98614.84;;;11.59;100.00
20145;BME280;10233;50.814;6.590;2023-10-31T05:03:23;98611.06;;;11.55;100.00
20145;BME280;10233;50.814;6.590;2023-10-31T05:04:23;98610.22;;;11.54;100.00
20145;BME280;10233;50.814;6.590;2023-10-31T05:05:24;98615.50;;;11.49;100.00
20145;BME280;10233;50.814;6.590;2023-10-31T05:06:24;98618.16;;;11.49;100.00
20145;BME280;10233;50.814;6.590;2023-10-31T05:07:24;98616.56;;;11.48;100.00
20145;BME280;10233;50.814;6.590;2023-10-31T05:08:25;98614.66;;;11.44;100.00
20145;BME280;10233;50.814;6.590;2023-10-31T05:09:26;98615.44;;;11.44;100.00
20145;BME280;10233;50.814;6.590;2023-10-31T05:10:27;98615.44;;;11.44;100.00
20145;BME280;10233;50.814;6.590;2023-10-31T05:11:27;98625.59;;;11.47;100.00
20145;BME280;10233;50.814;6.590;2023-10-31T05:12:28;98620.28;;;11.47;100.00
20145;BME280;10233;50.814;6.590;2023-10-31T05:13:28;98624.72;;;11.42;100.00
20145;BME280;10233;50.814;6.590;2023-10-31T05:14:29;98618.09;;;11.44;100.00
20145;BME280;10233;50.814;6.590;2023-10-31T05:15:29;98621.50;;;11.40;100.00
20145;BME280;10233;50.814;6.590;2023-10-31T05:16:30;98619.63;;;11.40;100.00
20145;BME280;10233;50.814;6.590;2023-10-31T05:17:30;98622.31;;;11.40;100.00
20145;BME280;10233;50.814;6.590;2023-10-31T05:18:31;98620.16;;;11.37;100.00